Time;durP1;ratioP1;P1;durP2;ratioP2;P2;SDS_P1;SDS_P2;PMS_P1;PMS_P2;Temp;Humidity;BMP_temperature;BMP_pressure;BME280_temperature;BME280_humidity;BME280_pressure;Samples;Min_cycle;Max_cycle;Signal;HPM_P1;HPM_P2
2022/11/22 00:02:19;;;;;;;0.98;0.57;;;5.50;99.90;;;;;;5053316;28;20031;-91
2022/11/22 00:04:45;;;;;;;0.20;0.20;;;5.50;99.90;;;;;;5031764;28;20754;-87
2022/11/22 00:07:11;;;;;;;0.40;0.38;;;5.50;99.90;;;;;;5050396;28;20439;-88
2022/11/22 00:09:36;;;;;;;0.10;0.10;;;5.50;99.90;;;;;;5032877;28;20029;-87
2022/11/22 00:12:02;;;;;;;0.10;0.10;;;5.40;99.90;;;;;;5049255;28;20035;-87
2022/11/22 00:14:28;;;;;;;0.10;0.10;;;5.50;99.90;;;;;;5049371;28;20385;-86
2022/11/22 00:16:53;;;;;;;0.10;0.10;;;5.80;99.90;;;;;;5051035;28;20029;-86
2022/11/22 00:19:19;;;;;;;0.10;0.10;;;5.90;99.90;;;;;;5030569;28;20037;-87
2022/11/22 00:21:45;;;;;;;0.10;0.10;;;6.00;99.90;;;;;;5051595;28;20044;-87
2022/11/22 00:24:12;;;;;;;6.72;1.10;;;6.00;99.90;;;;;;5047840;28;20488;-87
2022/11/22 00:26:37;;;;;;;;;;;6.00;99.90;;;;;;5031747;28;20556;-87
2022/11/22 00:29:03;;;;;;;0.10;0.10;;;5.90;99.90;;;;;;5051436;28;19909;-86
2022/11/22 00:31:29;;;;;;;0.10;0.10;;;6.00;99.90;;;;;;5045501;28;20021;-88
2022/11/22 00:33:54;;;;;;;0.95;0.95;;;6.20;99.90;;;;;;5048864;28;20851;-87
2022/11/22 00:36:20;;;;;;;0.30;0.30;;;6.20;99.90;;;;;;5048250;28;20084;-85
2022/11/22 00:38:46;;;;;;;0.15;0.15;;;6.30;99.90;;;;;;5049040;28;20033;-86
2022/11/22 00:41:12;;;;;;;0.10;0.10;;;6.30;99.90;;;;;;5048735;28;20082;-85
2022/11/22 00:43:37;;;;;;;0.15;0.15;;;6.30;99.90;;;;;;5048140;28;20072;-85
2022/11/22 00:46:03;;;;;;;0.30;0.30;;;6.20;99.90;;;;;;5052397;28;20455;-85
2022/11/22 00:48:29;;;;;;;0.10;0.10;;;6.10;99.90;;;;;;5048064;28;20563;-85
2022/11/22 00:50:55;;;;;;;1.35;1.23;;;6.00;99.90;;;;;;5048241;28;20245;-89
2022/11/22 00:53:21;;;;;;;0.20;0.20;;;5.70;99.90;;;;;;5029706;28;20036;-86
2022/11/22 00:55:47;;;;;;;0.17;0.17;;;5.50;99.90;;;;;;5030469;28;20045;-88
2022/11/22 00:58:12;;;;;;;0.10;0.10;;;5.40;99.90;;;;;;5028340;28;20036;-85
2022/11/22 01:00:38;;;;;;;0.50;0.50;;;5.60;99.90;;;;;;5027975;28;20031;-84
2022/11/22 01:03:04;;;;;;;0.38;0.38;;;5.70;99.90;;;;;;5030022;28;20041;-85
2022/11/22 01:05:30;;;;;;;0.10;0.10;;;5.90;99.90;;;;;;5060216;28;20033;-85
2022/11/22 01:07:55;;;;;;;0.47;0.47;;;6.10;99.90;;;;;;5046901;28;20033;-86
2022/11/22 01:10:21;;;;;;;0.10;0.10;;;6.10;99.90;;;;;;5062202;28;20134;-85
2022/11/22 01:12:47;;;;;;;2.90;1.70;;;6.10;99.90;;;;;;5030509;28;20585;-83
2022/11/22 01:15:13;;;;;;;0.13;0.13;;;6.20;99.90;;;;;;5048817;28;20025;-85
2022/11/22 01:17:39;;;;;;;0.10;0.10;;;6.30;99.90;;;;;;5030929;28;20036;-86
2022/11/22 01:20:05;;;;;;;0.47;0.47;;;6.30;99.90;;;;;;5047827;28;20063;-86
2022/11/22 01:22:31;;;;;;;0.90;0.90;;;6.30;99.90;;;;;;5048837;28;20108;-86
2022/11/22 01:24:56;;;;;;;0.55;0.30;;;6.30;99.90;;;;;;5028451;28;20124;-86
2022/11/22 01:27:22;;;;;;;0.10;0.10;;;6.30;99.90;;;;;;5049997;28;20025;-86
2022/11/22 01:29:48;;;;;;;0.20;0.20;;;6.30;99.90;;;;;;5029881;28;20025;-87
2022/11/22 01:32:14;;;;;;;22.17;0.80;;;6.20;99.90;;;;;;5047224;28;20064;-85
2022/11/22 01:34:40;;;;;;;0.10;0.10;;;6.20;99.90;;;;;;5037843;28;20758;-86
2022/11/22 01:37:05;;;;;;;0.10;0.10;;;6.10;99.90;;;;;;5029233;28;20119;-87
2022/11/22 01:39:31;;;;;;;0.10;0.10;;;6.10;99.90;;;;;;5061764;28;20060;-86
2022/11/22 01:41:57;;;;;;;0.30;0.30;;;6.20;99.90;;;;;;5028932;28;20037;-87
2022/11/22 01:44:29;;;;;;;0.98;0.85;;;6.20;99.90;;;;;;5046939;28;20029;-84
2022/11/22 01:47:08;;;;;;;0.20;0.20;;;6.20;99.90;;;;;;5029444;28;20045;-87
2022/11/22 01:49:45;;;;;;;0.75;0.63;;;6.20;99.90;;;;;;5042590;28;20017;-87
2022/11/22 01:52:16;;;;;;;6.22;2.33;;;6.30;99.90;;;;;;5049787;28;20036;-88
2022/11/22 01:54:45;;;;;;;0.20;0.20;;;6.20;99.90;;;;;;5047467;28;20445;-90
2022/11/22 01:57:16;;;;;;;0.30;0.30;;;6.10;99.90;;;;;;5057158;28;20424;-89
2022/11/22 01:59:48;;;;;;;0.20;0.20;;;6.10;99.90;;;;;;5028781;28;20110;-90
2022/11/22 02:02:14;;;;;;;8.30;1.95;;;6.10;99.90;;;;;;5046897;28;20900;-87
2022/11/22 02:04:41;;;;;;;0.32;0.32;;;6.10;99.90;;;;;;5052633;28;20079;-87
2022/11/22 02:07:17;;;;;;;0.47;0.47;;;6.10;99.90;;;;;;5047191;28;20032;-86
2022/11/22 02:09:45;;;;;;;0.52;0.52;;;6.10;99.90;;;;;;5054496;28;20794;-87
2022/11/22 02:12:12;;;;;;;3.00;1.45;;;6.00;99.90;;;;;;5029530;28;20044;-87
2022/11/22 02:14:39;;;;;;;0.50;0.50;;;5.90;99.90;;;;;;5046537;28;20244;-86
2022/11/22 02:17:04;;;;;;;;;;;6.00;99.90;;;;;;5029329;28;20507;-86
2022/11/22 02:19:41;;;;;;;0.10;0.10;;;5.90;99.90;;;;;;5029681;28;20289;-87
2022/11/22 02:22:35;;;;;;;0.20;0.20;;;5.90;99.90;;;;;;5032964;28;20029;-86
2022/11/22 02:25:25;;;;;;;0.57;0.57;;;5.90;99.90;;;;;;5028680;28;20480;-87
2022/11/22 02:27:51;;;;;;;0.30;0.30;;;6.10;99.90;;;;;;5047389;28;20090;-86
2022/11/22 02:30:18;;;;;;;0.13;0.13;;;6.00;99.90;;;;;;5046496;28;20070;-87
2022/11/22 02:32:44;;;;;;;2.63;1.20;;;6.00;99.90;;;;;;5052356;28;20727;-87
2022/11/22 02:35:19;;;;;;;0.52;0.52;;;5.90;99.90;;;;;;5029240;28;20037;-86
2022/11/22 02:37:46;;;;;;;1.45;1.17;;;6.00;99.90;;;;;;5047028;28;20029;-86
2022/11/22 02:40:13;;;;;;;;;;;6.00;99.90;;;;;;5048441;28;20129;-87
2022/11/22 02:42:43;;;;;;;0.30;0.30;;;6.00;99.90;;;;;;5048509;28;20248;-88
2022/11/22 02:45:09;;;;;;;9.52;1.75;;;6.00;99.90;;;;;;5033210;28;20029;-86
2022/11/22 02:47:35;;;;;;;4.10;1.80;;;5.90;99.90;;;;;;5028947;28;20037;-87
2022/11/22 02:50:00;;;;;;;0.10;0.10;;;6.00;99.90;;;;;;5049756;28;20507;-87
2022/11/22 02:52:26;;;;;;;0.20;0.20;;;5.90;99.90;;;;;;5043247;28;20433;-86
2022/11/22 02:54:52;;;;;;;7.63;0.90;;;5.80;99.90;;;;;;5035105;28;20049;-87
2022/11/22 02:57:17;;;;;;;1.40;0.50;;;5.80;99.90;;;;;;5059889;28;20858;-89
2022/11/22 02:59:43;;;;;;;0.10;0.10;;;5.90;99.90;;;;;;5050551;28;20099;-89
2022/11/22 03:02:09;;;;;;;0.80;0.68;;;5.80;99.90;;;;;;5032749;28;20151;-85
2022/11/22 03:04:34;;;;;;;0.35;0.35;;;5.90;99.90;;;;;;5029146;28;20254;-87
2022/11/22 03:07:00;;;;;;;0.10;0.10;;;5.80;99.90;;;;;;5046888;28;20456;-85
2022/11/22 03:09:27;;;;;;;0.20;0.20;;;5.80;99.90;;;;;;5040523;28;20060;-87
2022/11/22 03:11:53;;;;;;;0.10;0.10;;;5.80;99.90;;;;;;5050494;28;20090;-86
2022/11/22 03:14:19;;;;;;;0.35;0.35;;;5.90;99.90;;;;;;5028326;28;20025;-85
2022/11/22 03:16:46;;;;;;;0.55;0.40;;;5.90;99.90;;;;;;5034614;28;20037;-88
2022/11/22 03:19:12;;;;;;;0.30;0.30;;;5.90;99.90;;;;;;5046400;28;20037;-87
2022/11/22 03:21:39;;;;;;;23.52;1.73;;;6.00;99.90;;;;;;5052138;28;20044;-88
2022/11/22 03:24:05;;;;;;;0.25;0.25;;;6.00;99.90;;;;;;5052463;28;20064;-89
2022/11/22 03:26:31;;;;;;;0.30;0.30;;;6.00;99.90;;;;;;5057067;28;20044;-89
2022/11/22 03:28:57;;;;;;;0.10;0.10;;;6.00;99.90;;;;;;5035100;28;20029;-89
2022/11/22 03:31:23;;;;;;;0.10;0.10;;;5.80;99.90;;;;;;5035053;28;20126;-90
2022/11/22 03:33:48;;;;;;;0.20;0.20;;;6.00;99.90;;;;;;5036339;28;20033;-96
2022/11/22 03:36:14;;;;;;;0.10;0.10;;;6.00;99.90;;;;;;5039385;28;20037;-90
2022/11/22 03:38:40;;;;;;;0.10;0.10;;;6.00;99.90;;;;;;5035184;28;20029;-87
2022/11/22 03:41:05;;;;;;;0.50;0.50;;;6.00;99.90;;;;;;5032505;28;20029;-86
2022/11/22 03:43:31;;;;;;;0.30;0.30;;;6.20;99.90;;;;;;5043619;28;20029;-91
2022/11/22 03:45:56;;;;;;;0.20;0.20;;;6.00;99.90;;;;;;5034393;28;20025;-86
2022/11/22 03:48:22;;;;;;;0.30;0.30;;;6.10;99.90;;;;;;5050771;28;20033;-86
2022/11/22 03:50:48;;;;;;;0.55;0.55;;;6.10;99.90;;;;;;5032814;28;20060;-90
2022/11/22 03:53:13;;;;;;;0.45;0.45;;;6.10;99.90;;;;;;5050363;28;20075;-89
2022/11/22 03:55:39;;;;;;;0.45;0.45;;;6.20;99.90;;;;;;5031485;28;20048;-85
2022/11/22 03:58:05;;;;;;;0.10;0.10;;;6.10;99.90;;;;;;5049824;28;20898;-87
2022/11/22 04:00:32;;;;;;;0.10;0.10;;;6.00;99.90;;;;;;5029984;28;20028;-88
2022/11/22 04:02:58;;;;;;;0.10;0.10;;;6.10;99.90;;;;;;5031570;28;20044;-86
2022/11/22 04:05:24;;;;;;;0.10;0.10;;;6.00;99.90;;;;;;5050649;28;20037;-89
2022/11/22 04:07:54;;;;;;;0.68;0.68;;;6.00;99.90;;;;;;5050099;28;20063;-85
2022/11/22 04:10:21;;;;;;;1.10;1.00;;;6.00;99.90;;;;;;5049981;28;20035;-88
2022/11/22 04:12:47;;;;;;;0.10;0.10;;;6.00;99.90;;;;;;5032911;28;20762;-89
2022/11/22 04:15:13;;;;;;;0.68;0.68;;;6.10;99.90;;;;;;5047419;28;20209;-86
2022/11/22 04:17:40;;;;;;;0.10;0.10;;;6.10;99.90;;;;;;5027462;28;20028;-88
2022/11/22 04:23:00;;;;;;;0.45;0.45;;;6.10;99.90;;;;;;5049256;28;20857;-86
2022/11/22 04:25:28;;;;;;;0.10;0.10;;;6.20;99.90;;;;;;5047284;28;20021;-86
2022/11/22 04:27:55;;;;;;;0.55;0.55;;;6.30;99.90;;;;;;5050854;28;20096;-89
2022/11/22 04:33:08;;;;;;;0.43;0.43;;;6.10;99.90;;;;;;5050763;28;20040;-92
2022/11/22 04:35:33;;;;;;;0.32;0.32;;;6.10;99.90;;;;;;5053638;28;20111;-90
2022/11/22 04:37:59;;;;;;;0.10;0.10;;;6.10;99.90;;;;;;5034416;28;20119;-89
2022/11/22 04:40:25;;;;;;;23.67;1.30;;;6.10;99.90;;;;;;5057416;28;20041;-90
2022/11/22 04:45:34;;;;;;;3.78;2.10;;;6.10;99.90;;;;;;5053466;28;20074;-88
2022/11/22 04:48:00;;;;;;;0.10;0.10;;;6.00;99.90;;;;;;5031936;28;20083;-86
2022/11/22 04:53:16;;;;;;;0.85;0.85;;;5.90;99.90;;;;;;5055180;28;20039;-95
2022/11/22 04:55:44;;;;;;;0.52;0.40;;;5.80;99.90;;;;;;5035175;28;20052;-88
2022/11/22 04:58:10;;;;;;;0.63;0.63;;;5.90;99.90;;;;;;5047464;28;20037;-89
2022/11/22 05:00:36;;;;;;;0.10;0.10;;;6.10;99.90;;;;;;5057244;28;20033;-91
2022/11/22 05:03:02;;;;;;;0.10;0.10;;;6.20;99.90;;;;;;5042894;28;20024;-96
2022/11/22 05:05:28;;;;;;;0.10;0.10;;;6.10;99.90;;;;;;5036649;28;20071;-95
2022/11/22 05:07:56;;;;;;;0.20;0.20;;;6.10;99.90;;;;;;5055195;28;20048;-87
2022/11/22 05:10:22;;;;;;;0.10;0.10;;;6.10;99.90;;;;;;5044217;28;20074;-86
2022/11/22 05:12:47;;;;;;;0.10;0.10;;;6.20;99.90;;;;;;5048943;28;20037;-89
2022/11/22 05:15:13;;;;;;;0.30;0.30;;;6.30;99.90;;;;;;5058327;28;20024;-90
2022/11/22 05:17:39;;;;;;;0.20;0.20;;;6.30;99.90;;;;;;5050469;28;20036;-88
2022/11/22 05:20:06;;;;;;;0.95;0.68;;;6.30;99.90;;;;;;5030166;28;20589;-88
2022/11/22 05:25:17;;;;;;;0.10;0.10;;;5.80;99.90;;;;;;5048263;28;20044;-87
2022/11/22 05:27:43;;;;;;;0.63;0.52;;;5.90;99.90;;;;;;5030003;28;20040;-88
2022/11/22 05:30:09;;;;;;;0.10;0.10;;;6.00;99.90;;;;;;5048998;28;20025;-90
2022/11/22 05:32:35;;;;;;;0.25;0.25;;;5.90;99.90;;;;;;5035563;28;20646;-89
2022/11/22 05:35:01;;;;;;;0.30;0.30;;;5.90;99.90;;;;;;5035866;28;20046;-88
2022/11/22 05:37:27;;;;;;;0.13;0.13;;;6.10;99.90;;;;;;5051655;28;20032;-87
2022/11/22 05:39:53;;;;;;;0.35;0.35;;;6.20;99.90;;;;;;5031335;28;20036;-88
2022/11/22 05:42:19;;;;;;;0.10;0.10;;;6.20;99.90;;;;;;5030452;28;20040;-90
2022/11/22 05:44:45;;;;;;;0.10;0.10;;;6.20;99.90;;;;;;5032772;28;20052;-85
2022/11/22 05:47:10;;;;;;;0.10;0.10;;;6.20;99.90;;;;;;5031723;28;20128;-85
2022/11/22 05:49:36;;;;;;;0.10;0.10;;;6.20;99.90;;;;;;5031319;28;20056;-96
2022/11/22 05:52:02;;;;;;;6.00;1.98;;;6.20;99.90;;;;;;5032281;28;20028;-89
2022/11/22 05:54:29;;;;;;;0.10;0.10;;;6.20;99.90;;;;;;5058835;28;20133;-96
2022/11/22 05:56:55;;;;;;;0.30;0.30;;;6.20;99.90;;;;;;5041295;28;20068;-88
2022/11/22 05:59:20;;;;;;;0.25;0.25;;;6.30;99.90;;;;;;5034427;28;20037;-87
2022/11/22 06:01:46;;;;;;;0.28;0.28;;;6.30;99.90;;;;;;5050359;28;20083;-87
2022/11/22 06:04:12;;;;;;;1.08;0.70;;;6.20;99.90;;;;;;5032368;28;20052;-91
2022/11/22 06:06:37;;;;;;;0.35;0.35;;;6.20;99.90;;;;;;5035471;28;20036;-91
2022/11/22 06:09:03;;;;;;;0.85;0.85;;;6.00;99.90;;;;;;5046587;28;20460;-94
2022/11/22 06:11:29;;;;;;;0.38;0.38;;;6.00;99.90;;;;;;5037156;28;20024;-89
2022/11/22 06:14:02;;;;;;;0.20;0.20;;;5.60;99.90;;;;;;5029236;28;20033;-92
2022/11/22 06:16:28;;;;;;;1.15;1.02;;;5.60;99.90;;;;;;5034637;28;20017;-90
2022/11/22 06:18:54;;;;;;;0.32;0.32;;;5.60;99.90;;;;;;5031273;28;20033;-90
2022/11/22 06:21:24;;;;;;;0.90;0.90;;;5.70;99.90;;;;;;5032377;28;20029;-86
2022/11/22 06:23:51;;;;;;;0.75;0.75;;;5.90;99.90;;;;;;5033355;28;20271;-94
2022/11/22 06:26:18;;;;;;;0.43;0.40;;;6.00;99.90;;;;;;5055197;28;20037;-88
2022/11/22 06:28:44;;;;;;;;;;;6.00;99.90;;;;;;5049391;28;20028;-87
2022/11/22 06:31:16;;;;;;;0.10;0.10;;;6.00;99.90;;;;;;5035401;28;19912;-94
2022/11/22 06:33:42;;;;;;;0.13;0.13;;;6.10;99.90;;;;;;5042050;28;20044;-87
2022/11/22 06:36:19;;;;;;;1.15;0.73;;;6.20;99.90;;;;;;5027900;28;20021;-86
2022/11/22 06:38:46;;;;;;;0.10;0.10;;;6.20;99.90;;;;;;5045769;28;20047;-88
2022/11/22 06:41:13;;;;;;;0.77;0.73;;;6.20;99.90;;;;;;5048915;28;20061;-87
2022/11/22 06:43:41;;;;;;;0.10;0.10;;;6.20;99.90;;;;;;5047870;28;20033;-92
2022/11/22 06:46:07;;;;;;;;;;;6.20;99.90;;;;;;5036336;28;20033;-91
2022/11/22 06:48:34;;;;;;;2.95;1.88;;;6.30;99.90;;;;;;5041729;28;19923;-90
2022/11/22 06:51:05;;;;;;;0.10;0.10;;;6.40;99.90;;;;;;5055880;28;20068;-95
2022/11/22 06:53:33;;;;;;;0.13;0.13;;;6.40;99.90;;;;;;5037290;28;20021;-95
2022/11/22 06:56:04;;;;;;;0.30;0.30;;;6.40;99.90;;;;;;5047343;28;20501;-88
2022/11/22 06:58:29;;;;;;;0.95;0.93;;;6.50;99.90;;;;;;5053254;28;20473;-87
2022/11/22 07:01:03;;;;;;;0.43;0.43;;;6.40;99.90;;;;;;5040521;28;20084;-87
2022/11/22 07:03:29;;;;;;;0.50;0.50;;;6.20;99.90;;;;;;5055677;28;20110;-87
2022/11/22 07:05:55;;;;;;;0.20;0.20;;;6.10;99.90;;;;;;5032635;28;20033;-85
2022/11/22 07:08:21;;;;;;;1.23;1.00;;;6.10;99.90;;;;;;5050280;28;20059;-84
2022/11/22 07:10:47;;;;;;;0.10;0.10;;;6.00;99.90;;;;;;5045195;28;20039;-85
2022/11/22 07:13:13;;;;;;;0.47;0.47;;;6.10;99.90;;;;;;5050453;28;20025;-85
2022/11/22 07:15:38;;;;;;;0.43;0.43;;;6.20;99.90;;;;;;5032298;28;20075;-86
2022/11/22 07:18:04;;;;;;;0.10;0.10;;;6.20;99.90;;;;;;5033469;28;20033;-87
2022/11/22 07:20:30;;;;;;;0.40;0.40;;;6.10;99.90;;;;;;5037580;28;20032;-91
2022/11/22 07:22:55;;;;;;;0.25;0.25;;;5.70;99.90;;;;;;5041276;28;20040;-88
2022/11/22 07:25:21;;;;;;;0.22;0.22;;;5.50;99.90;;;;;;5052450;28;20653;-86
2022/11/22 07:27:47;;;;;;;0.35;0.35;;;5.50;99.90;;;;;;5051057;28;20563;-93
2022/11/22 07:30:13;;;;;;;0.85;0.85;;;5.60;99.90;;;;;;5032899;28;20040;-88
2022/11/22 07:32:39;;;;;;;6.43;2.27;;;5.70;99.90;;;;;;5032973;28;20404;-85
2022/11/22 07:35:05;;;;;;;25.40;9.07;;;6.00;99.90;;;;;;5032488;28;20025;-87
2022/11/22 07:37:30;;;;;;;2.38;2.17;;;6.30;99.90;;;;;;5036677;28;20064;-86
2022/11/22 07:39:56;;;;;;;0.75;0.70;;;6.20;99.90;;;;;;5039870;28;20028;-86
2022/11/22 07:42:22;;;;;;;0.25;0.25;;;6.20;99.90;;;;;;5052898;28;20033;-90
2022/11/22 07:44:48;;;;;;;4.57;3.47;;;6.30;99.90;;;;;;5040124;28;20029;-90
2022/11/22 07:47:13;;;;;;;5.93;3.42;;;6.30;99.90;;;;;;5053210;28;20476;-90
2022/11/22 07:49:39;;;;;;;0.30;0.30;;;6.40;99.90;;;;;;5037236;28;20029;-91
2022/11/22 07:52:05;;;;;;;3.20;2.90;;;6.50;99.90;;;;;;5036997;28;20036;-89
2022/11/22 07:54:31;;;;;;;2.00;1.85;;;6.50;99.90;;;;;;5038494;28;20053;-91
2022/11/22 07:56:57;;;;;;;0.82;0.82;;;6.30;99.90;;;;;;5037641;28;20071;-91
2022/11/22 07:59:22;;;;;;;0.65;0.65;;;6.40;99.90;;;;;;5037283;28;20076;-90
2022/11/22 08:01:48;;;;;;;5.90;4.80;;;6.50;99.90;;;;;;5034141;28;20040;-89
2022/11/22 08:04:14;;;;;;;4.38;3.28;;;6.50;99.90;;;;;;5034363;28;20024;-89
2022/11/22 08:06:40;;;;;;;0.43;0.43;;;6.70;99.90;;;;;;5034384;28;20036;-89
2022/11/22 08:09:05;;;;;;;0.30;0.30;;;6.70;99.90;;;;;;5033439;28;20036;-89
2022/11/22 08:11:31;;;;;;;1.20;1.10;;;6.70;99.90;;;;;;5033218;28;20124;-88
2022/11/22 08:13:57;;;;;;;41.03;8.52;;;6.80;99.90;;;;;;5051232;28;20017;-87
2022/11/22 08:16:22;;;;;;;3.92;2.83;;;7.00;99.90;;;;;;5033855;28;20163;-89
2022/11/22 08:18:49;;;;;;;1.05;1.05;;;7.10;99.90;;;;;;5039002;28;20376;-88
2022/11/22 08:21:16;;;;;;;0.65;0.65;;;7.10;99.90;;;;;;5042312;28;20064;-88
2022/11/22 08:23:43;;;;;;;4.50;1.83;;;7.10;99.90;;;;;;5050602;28;20076;-89
2022/11/22 08:26:11;;;;;;;2.35;0.30;;;7.00;99.90;;;;;;5051125;28;20029;-87
2022/11/22 08:28:38;;;;;;;0.15;0.15;;;7.10;99.90;;;;;;5044491;28;20661;-91
2022/11/22 08:31:21;;;;;;;0.30;0.30;;;7.20;99.90;;;;;;5050776;28;20085;-91
2022/11/22 08:33:51;;;;;;;0.43;0.43;;;7.50;99.90;;;;;;5029913;28;20623;-90
2022/11/22 08:36:17;;;;;;;0.10;0.10;;;7.50;99.90;;;;;;5033768;28;20112;-90
2022/11/22 08:38:42;;;;;;;0.40;0.40;;;7.40;99.90;;;;;;5032887;28;20124;-89
2022/11/22 08:41:08;;;;;;;0.20;0.20;;;7.40;99.90;;;;;;5031828;28;20025;-89
2022/11/22 08:43:34;;;;;;;0.20;0.20;;;7.50;99.90;;;;;;5049862;28;20036;-89
2022/11/22 08:46:01;;;;;;;0.30;0.30;;;7.50;99.90;;;;;;5033113;28;20021;-87
2022/11/22 08:48:28;;;;;;;0.10;0.10;;;7.80;99.90;;;;;;5032277;28;20531;-87
2022/11/22 08:50:57;;;;;;;0.20;0.20;;;7.90;99.90;;;;;;5050682;28;20373;-89
2022/11/22 08:53:23;;;;;;;4.85;2.97;;;7.80;99.90;;;;;;5052690;28;20132;-88
2022/11/22 08:55:49;;;;;;;1.70;1.37;;;7.70;99.90;;;;;;5050485;28;20156;-89
2022/11/22 08:58:14;;;;;;;1.23;1.20;;;7.60;99.90;;;;;;5031677;28;20139;-89
2022/11/22 09:00:40;;;;;;;0.20;0.20;;;7.70;99.90;;;;;;5063799;28;20033;-88
2022/11/22 09:03:06;;;;;;;0.65;0.43;;;7.80;99.90;;;;;;5055478;28;20578;-88
2022/11/22 09:05:32;;;;;;;2.08;1.95;;;7.90;99.90;;;;;;5057950;28;20092;-88
2022/11/22 09:07:58;;;;;;;6.97;0.98;;;7.80;99.90;;;;;;5031406;28;20033;-87
2022/11/22 09:10:24;;;;;;;2.38;2.17;;;7.80;99.90;;;;;;5047817;28;20083;-88
2022/11/22 09:12:50;;;;;;;0.65;0.65;;;7.70;99.90;;;;;;5031263;28;20890;-87
2022/11/22 09:15:16;;;;;;;1.97;1.47;;;7.30;99.90;;;;;;5031138;28;20029;-87
2022/11/22 09:17:42;;;;;;;0.20;0.20;;;7.50;99.90;;;;;;5049009;28;20025;-87
2022/11/22 09:20:09;;;;;;;0.52;0.52;;;7.50;99.90;;;;;;5031493;28;20021;-88
2022/11/22 09:22:34;;;;;;;1.00;0.95;;;7.30;99.90;;;;;;5049646;28;20033;-87
2022/11/22 09:25:01;;;;;;;0.93;0.93;;;7.10;99.90;;;;;;5048435;28;20570;-88
2022/11/22 09:27:26;;;;;;;0.25;0.25;;;7.10;99.90;;;;;;5048890;28;20028;-88
2022/11/22 09:29:52;;;;;;;0.35;0.35;;;7.20;99.90;;;;;;5034936;28;20032;-88
2022/11/22 09:32:18;;;;;;;0.95;0.57;;;7.40;99.90;;;;;;5048829;28;20025;-88
2022/11/22 09:34:43;;;;;;;1.38;1.27;;;7.40;99.90;;;;;;5064433;28;20029;-89
2022/11/22 09:37:09;;;;;;;0.25;0.25;;;7.30;99.90;;;;;;5032335;28;20025;-89
2022/11/22 09:39:35;;;;;;;0.38;0.38;;;7.30;99.90;;;;;;5048781;28;20229;-87
2022/11/22 09:42:16;;;;;;;0.73;0.70;;;7.30;99.90;;;;;;5031131;28;20029;-89
2022/11/22 09:45:12;;;;;;;0.80;0.55;;;7.10;99.90;;;;;;5038078;28;20044;-88
2022/11/22 09:47:59;;;;;;;0.10;0.10;;;7.30;99.90;;;;;;5060410;28;20531;-88
2022/11/22 09:50:50;;;;;;;0.22;0.22;;;7.30;99.90;;;;;;5049144;28;20767;-88
2022/11/22 09:53:19;;;;;;;0.25;0.25;;;7.40;99.90;;;;;;5040888;28;20028;-88
2022/11/22 09:55:48;;;;;;;0.22;0.22;;;7.30;99.90;;;;;;5049536;28;20049;-88
2022/11/22 09:58:34;;;;;;;0.30;0.30;;;7.40;99.90;;;;;;5064512;28;20149;-88
2022/11/22 10:01:27;;;;;;;0.73;0.73;;;7.30;99.90;;;;;;5025415;28;20531;-88
2022/11/22 10:04:03;;;;;;;0.10;0.10;;;7.30;99.90;;;;;;5030559;28;20449;-88
2022/11/22 10:06:45;;;;;;;0.50;0.50;;;7.60;99.90;;;;;;5031174;28;20037;-86
2022/11/22 10:09:35;;;;;;;1.10;0.68;;;7.50;99.90;;;;;;5040526;28;20267;-88
2022/11/22 10:12:27;;;;;;;0.30;0.30;;;7.80;99.90;;;;;;5064034;28;20029;-89
2022/11/22 10:15:29;;;;;;;0.10;0.10;;;8.30;99.90;;;;;;5035809;28;20048;-88
2022/11/22 10:18:10;;;;;;;0.10;0.10;;;8.00;99.90;;;;;;5044968;28;20080;-87
2022/11/22 10:20:40;;;;;;;0.30;0.30;;;8.30;99.90;;;;;;5047905;28;20035;-88
2022/11/22 10:23:19;;;;;;;0.10;0.10;;;8.50;99.90;;;;;;5048022;28;20033;-88
2022/11/22 10:25:53;;;;;;;0.98;0.95;;;8.30;99.90;;;;;;5047165;28;20111;-88
2022/11/22 10:28:27;;;;;;;0.90;0.90;;;8.30;99.90;;;;;;5029552;28;20033;-89
2022/11/22 10:31:16;;;;;;;0.30;0.30;;;8.20;99.90;;;;;;5056729;28;20025;-89
2022/11/22 10:34:10;;;;;;;0.30;0.30;;;8.50;99.90;;;;;;5034251;28;20025;-88
2022/11/22 10:37:10;;;;;;;0.32;0.32;;;8.40;99.90;;;;;;5042768;28;20037;-89
2022/11/22 10:39:59;;;;;;;14.73;2.10;;;8.60;99.90;;;;;;5074719;28;20017;-88
2022/11/22 10:42:44;;;;;;;0.20;0.20;;;9.40;99.90;;;;;;5056251;28;20035;-89
2022/11/22 10:45:35;;;;;;;0.10;0.10;;;8.90;99.90;;;;;;5034504;28;20108;-87
2022/11/22 10:48:12;;;;;;;0.38;0.38;;;8.50;99.90;;;;;;5034560;28;20087;-88
2022/11/22 10:51:02;;;;;;;0.15;0.15;;;8.30;99.90;;;;;;5064514;28;20098;-88
2022/11/22 10:53:53;;;;;;;1.85;1.15;;;8.50;99.90;;;;;;5043221;28;20026;-88
2022/11/22 10:57:00;;;;;;;0.30;0.30;;;8.40;99.90;;;;;;5044927;28;20052;-88
2022/11/22 10:59:38;;;;;;;3.90;1.20;;;8.40;99.90;;;;;;5033755;28;20045;-89
2022/11/22 11:02:41;;;;;;;0.85;0.85;;;8.60;99.90;;;;;;5051675;28;20021;-87
2022/11/22 11:05:13;;;;;;;0.35;0.35;;;8.90;99.90;;;;;;5033346;28;20043;-88
2022/11/22 11:07:46;;;;;;;2.05;1.30;;;9.80;99.90;;;;;;5055023;28;20564;-89
2022/11/22 11:10:23;;;;;;;0.38;0.38;;;10.10;99.90;;;;;;5050831;28;20025;-87
2022/11/22 11:12:54;;;;;;;0.98;0.98;;;9.60;99.90;;;;;;5050774;28;20024;-87
2022/11/22 11:15:22;;;;;;;2.42;1.58;;;9.00;99.90;;;;;;5035416;28;20068;-87
2022/11/22 11:17:56;;;;;;;0.35;0.35;;;8.70;99.90;;;;;;5060823;28;20030;-90
2022/11/22 11:20:26;;;;;;;1.02;1.02;;;8.70;99.90;;;;;;5067461;28;20074;-90
2022/11/22 11:22:51;;;;;;;0.90;0.90;;;8.40;99.90;;;;;;5062448;28;20067;-90
2022/11/22 11:25:31;;;;;;;0.13;0.13;;;8.30;99.90;;;;;;5059084;28;20033;-89
2022/11/22 11:28:04;;;;;;;0.63;0.63;;;8.50;99.90;;;;;;5035492;28;20111;-90
2022/11/22 11:30:43;;;;;;;3.20;2.33;;;8.50;99.90;;;;;;5052286;28;20055;-89
2022/11/22 11:33:20;;;;;;;1.30;1.17;;;8.70;99.90;;;;;;5034825;28;20025;-89
2022/11/22 11:35:46;;;;;;;5.68;1.73;;;8.80;99.90;;;;;;5034361;28;20029;-90
2022/11/22 11:38:30;;;;;;;1.75;1.02;;;9.50;99.90;;;;;;5034707;28;20033;-89
2022/11/22 11:40:57;;;;;;;0.65;0.65;;;9.20;99.90;;;;;;5034864;28;20052;-90
2022/11/22 11:43:23;;;;;;;0.23;0.23;;;9.10;99.90;;;;;;5033338;28;20021;-89
2022/11/22 11:45:50;;;;;;;0.63;0.63;;;9.30;99.90;;;;;;5052091;28;20303;-89
2022/11/22 11:48:27;;;;;;;0.50;0.50;;;9.10;99.90;;;;;;5033760;28;20040;-90
2022/11/22 11:51:05;;;;;;;;;;;9.10;99.90;;;;;;5033806;28;20029;-89
2022/11/22 11:53:30;;;;;;;0.30;0.30;;;9.10;99.90;;;;;;5030345;28;19915;-89
2022/11/22 11:56:17;;;;;;;0.88;0.73;;;9.90;99.90;;;;;;5050936;28;20052;-89
2022/11/22 11:58:48;;;;;;;;;;;9.90;99.90;;;;;;5050562;28;20044;-89
2022/11/22 12:01:19;;;;;;;0.40;0.30;;;10.10;99.90;;;;;;5049870;28;19995;-86
2022/11/22 12:04:01;;;;;;;0.28;0.28;;;9.80;99.90;;;;;;5031944;28;20063;-88
2022/11/22 12:06:29;;;;;;;1.05;0.98;;;9.80;99.90;;;;;;5049249;28;20029;-87
2022/11/22 12:08:56;;;;;;;6.50;1.92;;;9.50;99.90;;;;;;5049754;28;20043;-88
2022/11/22 12:11:45;;;;;;;2.65;2.03;;;9.40;99.90;;;;;;5049158;28;20550;-87
2022/11/22 12:14:13;;;;;;;0.60;0.47;;;9.40;99.90;;;;;;5042460;28;20102;-88
2022/11/22 12:16:44;;;;;;;3.38;0.57;;;9.60;99.90;;;;;;5049476;28;20033;-87
2022/11/22 12:19:41;;;;;;;0.25;0.25;;;9.80;99.90;;;;;;5043882;28;20106;-88
2022/11/22 12:22:22;;;;;;;0.73;0.60;;;10.00;99.90;;;;;;5049060;28;20115;-87
2022/11/22 12:24:56;;;;;;;0.20;0.20;;;9.90;99.90;;;;;;5042073;28;20463;-87
2022/11/22 12:27:22;;;;;;;0.20;0.20;;;10.20;99.90;;;;;;5044008;28;20041;-88
2022/11/22 12:29:47;;;;;;;0.10;0.10;;;10.40;99.90;;;;;;5048553;28;20075;-87
2022/11/22 12:32:28;;;;;;;3.03;1.45;;;10.80;99.90;;;;;;5048395;28;20036;-88
2022/11/22 12:35:11;;;;;;;1.02;0.60;;;10.60;99.90;;;;;;5048191;28;20028;-87
2022/11/22 12:38:11;;;;;;;0.77;0.68;;;10.70;99.90;;;;;;5038895;28;20120;-87
2022/11/22 12:40:46;;;;;;;0.25;0.25;;;10.80;99.90;;;;;;5048276;28;20051;-86
2022/11/22 12:43:24;;;;;;;1.08;1.00;;;10.40;99.90;;;;;;5048644;28;20107;-87
2022/11/22 12:45:59;;;;;;;0.50;0.47;;;10.70;99.90;;;;;;5048611;28;20115;-87
2022/11/22 12:48:37;;;;;;;0.30;0.30;;;10.50;99.90;;;;;;5048742;28;20115;-87
2022/11/22 12:51:13;;;;;;;0.10;0.10;;;10.00;99.90;;;;;;5050242;28;20036;-87
2022/11/22 12:53:43;;;;;;;0.10;0.10;;;9.80;99.90;;;;;;5044950;28;20621;-87
2022/11/22 12:56:09;;;;;;;0.10;0.10;;;9.60;99.90;;;;;;5029982;28;20040;-86
2022/11/22 12:58:50;;;;;;;0.10;0.10;;;9.70;99.90;;;;;;5061100;28;20032;-87
2022/11/22 13:01:42;;;;;;;2.13;0.73;;;9.80;99.90;;;;;;5040726;28;20432;-86
2022/11/22 13:04:10;;;;;;;0.10;0.10;;;9.70;99.90;;;;;;5047362;28;20110;-86
2022/11/22 13:06:42;;;;;;;0.10;0.10;;;10.00;99.90;;;;;;5029717;28;20033;-87
2022/11/22 13:09:16;;;;;;;2.10;0.65;;;10.20;99.90;;;;;;5048166;28;20029;-87
2022/11/22 13:12:08;;;;;;;0.10;0.10;;;10.20;99.90;;;;;;5048393;28;20036;-87
2022/11/22 13:14:42;;;;;;;0.22;0.22;;;10.20;99.90;;;;;;5037222;28;20048;-86
2022/11/22 13:17:09;;;;;;;1.42;1.33;;;10.30;99.90;;;;;;5030536;28;20078;-87
2022/11/22 13:20:15;;;;;;;0.10;0.10;;;10.40;99.90;;;;;;5062949;28;20032;-86
2022/11/22 13:23:16;;;;;;;1.27;1.27;;;10.10;99.90;;;;;;5010672;28;20425;-87
2022/11/22 13:25:56;;;;;;;1.55;1.00;;;9.90;99.90;;;;;;5047263;28;20512;-86
2022/11/22 13:28:27;;;;;;;0.10;0.10;;;9.40;99.90;;;;;;5054038;28;20029;-86